Home > Products > Valid Products > TAF

000
FTUS44 KCRP 022300
TAFVCT
TAF
KVCT 022327Z 0300/0324 12013KT P6SM VCSH SCT035 BKN100
     FM030200 12010KT P6SM SCT020 BKN150
     FM030900 13004KT P6SM VCSH BKN020 OVC150
      TEMPO 0310/0312 5SM BR
     FM031800 13012KT P6SM VCSH BKN035 OVC100 PROB30 0318/0322
      VRB15G25KT 1SM TSRA OVC030CB=



000
FTUS44 KCRP 022300
TAFLRD
TAF
KLRD 022327Z 0300/0324 08014KT P6SM VCTS SCT060CB BKN100
     FM030200 12015KT P6SM SCT040 BKN150
     FM031000 12009KT P6SM BKN020 BKN100
     FM031700 13012KT P6SM VCSH BKN040 OVC100
      TEMPO 0320/0324 VRB20G35KT 3SM TSRA OVC035CB=



000
FTUS44 KCRP 022300
TAFALI
TAF
KALI 022327Z 0300/0324 14018G25KT P6SM VCSH SCT040 BKN080
     FM030200 12010KT P6SM SCT020 BKN150
     FM030800 13004KT P6SM VCSH BKN020 OVC150
     FM031800 13012KT P6SM VCSH BKN035 OVC100
      TEMPO 0318/0322 VRB15G25KT 1SM TSRA OVC030CB=



000
FTUS44 KCRP 022300
TAFCRP
TAF
KCRP 022327Z 0300/0324 14015G25KT P6SM VCSH SCT030 BKN090
     FM030300 12010KT P6SM SCT025 BKN150
     FM030700 13007KT P6SM VCSH BKN020 OVC150
     FM031700 13012KT P6SM VCTS OVC030CB
      TEMPO 0317/0320 VRB15G25KT 1SM TSRA OVC025CB=



000
FTUS44 KCRP 022000 AAA
TAFALI
TAF AMD
KALI 022007Z 0220/0318 13014G20KT P6SM VCSH SCT035
      TEMPO 0220/0224 6SM TSRA BR SCT040CB
     FM030100 12010KT P6SM SCT020 BKN150
     FM030900 13005KT P6SM BKN020 BKN150
     FM031400 13013KT P6SM VCSH SCT035 SCT150=



000
FTUS44 KCRP 021700 RRA
TAFALI
TAF
KALI 021741Z 0218/0318 13014G20KT P6SM VCSH SCT035
      TEMPO 0218/0222 3SM TSRA SCT030CB
     FM022200 13014G20KT P6SM VCTS SCT050CB
      TEMPO 0222/0224 3SM TSRA SCT040CB
     FM030100 12010KT P6SM SCT020 BKN150
     FM030900 13005KT P6SM BKN020 BKN150
     FM031400 13013KT P6SM VCSH SCT035 SCT150=



000
FTUS44 KCRP 021700 RRA
TAFVCT
TAF
KVCT 021741Z 0218/0318 15017G23KT P6SM VCSH SCT035
      TEMPO 0218/0222 4SM TSRA BKN035CB
     FM030100 14011KT P6SM SCT020 BKN120
     FM030800 13008KT P6SM BKN012 BKN150
     FM031400 12011KT P6SM VCSH BKN025=



000
FTUS44 KCRP 021700 RRA
TAFCRP
TAF
KCRP 021741Z 0218/0318 13017G23KT P6SM VCSH SCT035 SCT250
      TEMPO 0218/0221 5SM -TSRA BKN035CB
     FM030100 13013KT P6SM SCT020 BKN150
     FM030800 12009KT P6SM VCSH BKN020 BKN150
      TEMPO 0310/0314 5SM -TSRA BKN018CB
     FM031400 13013G19KT P6SM VCSH SCT025=



000
FTUS44 KCRP 021700 RRA
TAFLRD
TAF
KLRD 021741Z 0218/0318 13012KT P6SM SCT040
     FM022000 13015G20KT P6SM VCTS BKN050CB
     FM030200 12015KT P6SM SCT030 BKN120
     FM031000 12009KT P6SM BKN020 BKN100
     FM031500 13012KT P6SM BKN035=



000
FTUS44 KCRP 021300 AAA
TAFVCT
TAF AMD
KVCT 021350Z 0214/0312 15008KT P6SM VCSH SCT025
      TEMPO 0214/0218 6SM -RA BKN025
     FM021800 14014G20KT P6SM VCTS BKN035CB
      TEMPO 0218/0222 3SM TSRA OVC025CB
     FM030100 14011KT P6SM SCT020 BKN120
     FM030800 13008KT P6SM BKN012 BKN150=



000
FTUS44 KCRP 021300 AAA
TAFCRP
TAF AMD
KCRP 021330Z 0214/0312 13006KT P6SM SCT016
     FM021400 15010G18KT P6SM VCSH SCT025
      TEMPO 0214/0218 4SM RA BKN025
     FM021800 13014G21KT P6SM VCTS BKN035CB
      TEMPO 0218/0222 5SM -TSRA OVC030CB
     FM030100 13013KT P6SM SCT020 BKN120
      TEMPO 0303/0306 BKN020
     FM030800 12009KT P6SM VCSH BKN018 BKN100 PROB30 0308/0312 5SM
      -TSRA BKN012CB=



000
FTUS44 KCRP 021300 AAA
TAFALI
TAF AMD
KALI 021316Z 0213/0312 14004KT P6SM SCT015
     FM021500 15010G18KT P6SM VCSH SCT025
      TEMPO 0215/0217 -RA BKN025
     FM021900 13014G20KT P6SM VCTS BKN035CB
      TEMPO 0219/0223 3SM TSRA OVC030CB
     FM030100 12010KT P6SM SCT020 BKN120
     FM030900 13005KT P6SM BKN015 BKN100=



000
FTUS44 KCRP 021100
TAFCRP
TAF
KCRP 021128Z 0212/0312 13006KT P6SM SCT016
      TEMPO 0212/0214 BKN016
     FM021400 15010G18KT P6SM VCSH BKN025
      TEMPO 0214/0218 4SM TSRA BKN018CB
     FM021800 13014G21KT P6SM VCTS BKN030CB
      TEMPO 0218/0222 5SM -TSRA OVC025CB
     FM030100 13013KT P6SM SCT020 BKN120
      TEMPO 0303/0306 BKN020
     FM030800 12009KT P6SM VCSH BKN018 BKN100 PROB30 0308/0312 5SM
      -TSRA BKN012CB=



000
FTUS44 KCRP 021100
TAFLRD
TAF
KLRD 021128Z 0212/0312 12008KT P6SM SCT016
      TEMPO 0212/0215 BKN016
     FM021500 15012KT P6SM SCT028
      TEMPO 0215/0217 BKN028
     FM021900 13015KT P6SM VCTS BKN050CB PROB30 0221/0301 5SM -TSRA
      BKN035CB
     FM030200 12015KT P6SM SCT030 BKN120
     FM031000 12009KT P6SM BKN015 BKN100=



000
FTUS44 KCRP 021100
TAFALI
TAF
KALI 021128Z 0212/0312 14004KT P6SM SCT015
      TEMPO 0212/0214 5SM BR BKN015
     FM021500 15010G18KT P6SM VCSH BKN025
     FM021900 13014G20KT P6SM VCTS BKN030CB
      TEMPO 0219/0223 3SM TSRA OVC025CB
     FM030100 12010KT P6SM SCT020 BKN120
     FM030900 13005KT P6SM BKN015 BKN100=



000
FTUS44 KCRP 021100
TAFVCT
TAF
KVCT 021128Z 0212/0312 13004KT P6SM SCT012
      TEMPO 0212/0214 5SM BR BKN012
     FM021500 15010KT P6SM VCSH BKN022
     FM021800 14014G20KT P6SM VCTS BKN035CB
      TEMPO 0218/0222 3SM TSRA OVC025CB
     FM030100 14011KT P6SM SCT020 BKN120
     FM030800 13008KT P6SM BKN012 BKN150=



000
FTUS44 KCRP 020500
TAFCRP
TAF
KCRP 020525Z 0206/0306 13010KT P6SM SCT018
     FM020900 14006KT P6SM BKN014
     FM021300 15010G18KT P6SM VCSH BKN025
      TEMPO 0213/0217 4SM TSRA BKN018CB
     FM021700 13014G21KT P6SM VCTS BKN030CB
      TEMPO 0217/0221 5SM -TSRA OVC025CB
     FM030100 13013KT P6SM SCT020 BKN100
      TEMPO 0303/0306 BKN020=



000
FTUS44 KCRP 020500
TAFVCT
TAF
KVCT 020525Z 0206/0306 14007KT P6SM SCT020
     FM020900 VRB03KT 6SM BR SCT012
      TEMPO 0209/0213 3SM BR BKN012
     FM021500 15010KT P6SM VCSH BKN022
     FM021800 14014G20KT P6SM VCTS BKN035CB
      TEMPO 0218/0222 3SM TSRA OVC025CB
     FM030100 14011KT P6SM SCT020 BKN120=



000
FTUS44 KCRP 020500
TAFALI
TAF
KALI 020525Z 0206/0306 14007KT P6SM SCT020
     FM020800 14005KT P6SM BKN015
     FM021600 15010G18KT P6SM VCSH BKN025
     FM022000 13014G20KT P6SM VCTS BKN030CB
      TEMPO 0220/0224 3SM TSRA OVC025CB
     FM030100 12010KT P6SM SCT020 BKN100=



000
FTUS44 KCRP 020500
TAFLRD
TAF
KLRD 020525Z 0206/0306 12015KT P6SM SKC
     FM020800 15010KT P6SM SCT020
      TEMPO 0210/0214 BKN018
     FM021600 15012KT P6SM SCT028
      TEMPO 0216/0218 BKN028
     FM021900 13015KT P6SM VCTS BKN050CB PROB30 0220/0224 5SM -TSRA
      BKN035CB
     FM030200 12015KT P6SM SCT030 BKN120=



000
FTUS44 KCRP 020300 AAA
TAFVCT
TAF AMD
KVCT 020339Z 0204/0224 14007KT P6SM SCT020
     FM021000 17003KT 5SM BR BKN012
     FM021500 15008G15KT P6SM VCSH BKN025
     FM021800 13010G20KT P6SM VCTS BKN030CB
      TEMPO 0218/0222 1SM TSRA OVC025CB=



000
FTUS44 KCRP 020300 AAA
TAFVCT
TAF AMD
KVCT 020339Z 0204/0224 14007KT P6SM SCT020
     FM021000 17003KT 5SM BR BKN012
     FM021500 15008G15KT P6SM VCSH BKN025
     FM021800 13010G20KT P6SM VCTS BKN030CB
      TEMPO 0218/0222 1SM TSRA OVC025CB=



000
FTUS44 KCRP 020300 AAA
TAFCRP
TAF AMD
KCRP 020336Z 0204/0224 13010KT P6SM SCT020
     FM020900 14005KT P6SM BKN012
     FM021400 15010G18KT P6SM VCSH BKN025
     FM021700 13012G20KT P6SM VCTS BKN030CB
      TEMPO 0218/0222 1SM TSRA OVC025CB=



000
FTUS44 KCRP 020300 AAA
TAFCRP
TAF AMD
KCRP 020336Z 0204/0224 13010KT P6SM SCT020
     FM020900 14005KT P6SM BKN012
     FM021400 15010G18KT P6SM VCSH BKN025
     FM021700 13012G20KT P6SM VCTS BKN030CB
      TEMPO 0218/0222 1SM TSRA OVC025CB=



000
FTUS44 KCRP 020300 AAA
TAFALI
TAF AMD
KALI 020333Z 0204/0224 14008KT P6SM SCT020
     FM020800 14005KT P6SM BKN012
     FM021600 15010G18KT P6SM VCSH BKN025
     FM021800 13012G20KT P6SM VCTS BKN030CB
      TEMPO 0220/0224 1SM TSRA OVC025CB=



000
FTUS44 KCRP 020300 AAA
TAFALI
TAF AMD
KALI 020333Z 0204/0224 14008KT P6SM SCT020
     FM020800 14005KT P6SM BKN012
     FM021600 15010G18KT P6SM VCSH BKN025
     FM021800 13012G20KT P6SM VCTS BKN030CB
      TEMPO 0220/0224 1SM TSRA OVC025CB=



000
FTUS44 KCRP 012300
TAFALI
TAF
KALI 012340Z 0200/0224 14018G25KT P6SM SCT050
     FM020300 15012KT P6SM SCT020
     FM020800 14005KT P6SM BKN012
     FM021600 15010G18KT P6SM VCSH BKN025
     FM021800 13012G20KT P6SM VCTS BKN030CB
      TEMPO 0220/0224 1SM TSRA OVC025CB=



000
FTUS44 KCRP 012300
TAFVCT
TAF
KVCT 012340Z 0200/0224 13015G25KT P6SM SCT250
     FM020500 15012KT P6SM SCT020
     FM021000 17004KT 5SM BR BKN012
     FM021500 15008G15KT P6SM VCSH BKN025
     FM021800 13010G20KT P6SM VCTS BKN030CB
      TEMPO 0218/0222 1SM TSRA OVC025CB=



000
FTUS44 KCRP 012300
TAFLRD
TAF
KLRD 012340Z 0200/0224 16012G18KT P6SM SCT060 BKN150
     FM020800 13010KT P6SM SCT020
      TEMPO 0210/0214 BKN020
     FM021600 15012KT P6SM SCT030
      TEMPO 0216/0218 BKN030
     FM021800 15015KT P6SM VCTS BKN040CB=



000
FTUS44 KCRP 012300
TAFCRP
TAF
KCRP 012340Z 0200/0224 14014G20KT P6SM SCT030 BKN150
     FM020400 15010KT P6SM SCT020
     FM020800 14005KT P6SM BKN012
     FM021400 15010G18KT P6SM VCSH BKN025
     FM021700 13012G20KT P6SM VCTS BKN030CB
      TEMPO 0218/0222 1SM TSRA OVC025CB=



000
FTUS44 KCRP 012000 AAA
TAFLRD
TAF AMD
KLRD 012002Z 0120/0218 15014G20KT P6SM SCT070
     FM020800 13010KT P6SM SCT020
     FM021300 14012KT P6SM BKN020
     FM021700 15012KT P6SM SCT030=



000
FTUS44 KCRP 012000 AAA
TAFVCT
TAF AMD
KVCT 012001Z 0120/0218 15014G20KT P6SM FEW035
     FM020100 15008KT P6SM SCT020
     FM020800 14006KT P6SM BKN012
     FM021400 15010KT P6SM SCT025=



000
FTUS44 KCRP 011700
TAFLRD
TAF
KLRD 011729Z 0118/0218 14014KT P6SM SCT070
     FM020800 13010KT P6SM SCT020
     FM021300 14012KT P6SM BKN020
     FM021700 15012KT P6SM SCT030=



000
FTUS44 KCRP 011700
TAFCRP
TAF
KCRP 011729Z 0118/0218 14014G21KT P6SM FEW025 SCT040 SCT250
     FM020100 13012KT P6SM SCT020
     FM020800 VRB03KT P6SM SCT015
     FM021400 14010G18KT P6SM BKN030=



000
FTUS44 KCRP 011700
TAFVCT
TAF
KVCT 011729Z 0118/0218 15009KT P6SM VCSH FEW030 SCT080
     FM012100 15014KT P6SM FEW035
     FM020100 15008KT P6SM SCT020
     FM020800 14006KT P6SM BKN012
     FM021400 15010KT P6SM SCT025=



000
FTUS44 KCRP 011700
TAFALI
TAF
KALI 011729Z 0118/0218 14014G22KT P6SM FEW025 SCT050 SCT250
     FM020100 15010KT P6SM FEW020
     FM020800 14005KT P6SM BKN012
     FM021500 15010G18KT P6SM SCT025=



000
FTUS44 KCRP 011500 AAA
TAFVCT
TAF AMD
KVCT 011533Z 0116/0212 16009KT P6SM VCSH SCT025 BKN080
      TEMPO 0116/0118 -RA BKN025
     FM012000 15014KT P6SM VCSH SCT035
     FM020100 15008KT P6SM SCT020
     FM020800 14006KT P6SM BKN012=



000
FTUS44 KCRP 011100
TAFLRD
TAF
KLRD 011129Z 0112/0212 13008KT P6SM SCT017
      TEMPO 0112/0114 BKN017
     FM011600 17012KT P6SM SCT040
     FM011900 15014KT P6SM SCT070
     FM020100 13015KT P6SM SCT250
     FM020900 15010KT P6SM SCT020=



000
FTUS44 KCRP 011100
TAFALI
TAF
KALI 011129Z 0112/0212 VRB04KT 6SM BR SCT014 BKN022
      TEMPO 0112/0114 4SM BR BKN014
     FM011400 16009KT P6SM SCT028
      TEMPO 0114/0116 BKN028
     FM011800 14014G22KT P6SM SCT050
     FM020100 15010KT P6SM FEW020
     FM020800 14005KT P6SM BKN012=



000
FTUS44 KCRP 011100
TAFVCT
TAF
KVCT 011129Z 0112/0212 VRB03KT 4SM BR SCT012 BKN022
      TEMPO 0112/0114 2SM BR BKN012
     FM011500 16009KT P6SM BKN025 BKN080
     FM012000 15014KT P6SM SCT035
     FM020100 15008KT P6SM SCT020
     FM020800 14006KT P6SM BKN012=



000
FTUS44 KCRP 011100
TAFCRP
TAF
KCRP 011129Z 0112/0212 16005KT P6SM SCT015
      TEMPO 0112/0113 5SM BR BKN015
     FM011400 16009KT P6SM SCT025
     FM011800 14014G21KT P6SM SCT040 SCT100
     FM020100 13012KT P6SM SCT020
     FM020800 14009KT P6SM BKN015=



000
FTUS44 KCRP 010700 AAA
TAFALI
TAF AMD
KALI 010706Z 0107/0206 16005KT P6SM SCT022
      TEMPO 0107/0109 BKN022
     FM010900 VRB04KT P6SM SCT015
      TEMPO 0110/0113 4SM BR BKN015
     FM011500 16009KT P6SM SCT028
     FM011800 14014G22KT P6SM SCT050
     FM020100 15010KT P6SM FEW020=



000
FTUS44 KCRP 010500
TAFVCT
TAF
KVCT 010531Z 0106/0206 12004KT P6SM SCT022
      TEMPO 0106/0109 5SM BR BKN022
     FM010900 VRB03KT 5SM BR SCT012
      TEMPO 0109/0113 3SM BR BKN012
     FM011500 16009KT P6SM BKN025 BKN080
     FM012000 15014KT P6SM SCT035
     FM020100 15008KT P6SM SCT020=



000
FTUS44 KCRP 010500
TAFCRP
TAF
KCRP 010531Z 0106/0206 14008KT P6SM FEW020 SCT250
     FM010900 17005KT P6SM SCT015
      TEMPO 0110/0113 5SM BR BKN015
     FM011400 16009KT P6SM SCT025
     FM011800 14014G21KT P6SM SCT040 SCT100
     FM020100 13012KT P6SM SCT020=



000
FTUS44 KCRP 010500
TAFALI
TAF
KALI 010531Z 0106/0206 15005KT P6SM FEW018
     FM010900 VRB04KT P6SM SCT015
      TEMPO 0110/0113 4SM BR BKN015
     FM011500 16009KT P6SM SCT028
     FM011800 14014G22KT P6SM SCT050
     FM020100 15010KT P6SM FEW020=



000
FTUS44 KCRP 010500
TAFLRD
TAF
KLRD 010531Z 0106/0206 15012KT P6SM SKC
     FM010900 14009KT P6SM SCT017
      TEMPO 0109/0113 BKN017
     FM011600 17012KT P6SM SCT040
     FM011900 15014KT P6SM SCT070
     FM020100 13015KT P6SM SCT250=



000
FTUS44 KCRP 010000 AAA
TAFLRD
TAF AMD
KLRD 010045Z 0101/0124 14014KT P6SM FEW030 SCT070
     FM010900 17006KT P6SM SCT020
      TEMPO 0109/0113 BKN018
     FM011800 16011KT P6SM SCT050=



000
FTUS44 KCRP 312300
TAFLRD
TAF
KLRD 312326Z 0100/0124 16013KT P6SM VCSH FEW030 SCT070
     FM010900 17006KT P6SM SCT020
      TEMPO 0109/0113 BKN018
     FM011800 16011KT P6SM SCT050=



000
FTUS44 KCRP 312300
TAFVCT
TAF
KVCT 312326Z 0100/0124 14014KT P6SM FEW035 BKN150
     FM010300 VRB05KT P6SM SCT020
      TEMPO 0110/0113 4SM BR BKN020
     FM011500 15008KT P6SM SCT025
     FM012000 15014KT P6SM SCT035=



000
FTUS44 KCRP 312300
TAFCRP
TAF
KCRP 312326Z 0100/0124 14014KT P6SM FEW025 SCT035 BKN150
     FM010300 VRB06KT P6SM SCT020
      TEMPO 0110/0113 5SM BR BKN020
     FM011500 15009KT P6SM FEW035
     FM011800 14015G21KT P6SM SCT040=



000
FTUS44 KCRP 312300
TAFALI
TAF
KALI 312326Z 0100/0124 15014G21KT P6SM VCSH SCT040
     FM010300 VRB05KT P6SM SCT020
      TEMPO 0110/0113 3SM BR BKN012 OVC020
     FM011500 16012KT P6SM SCT035
     FM011900 14015G21KT P6SM SCT040=



000
FTUS44 KCRP 311700
TAFLRD
TAF
KLRD 311722Z 3118/0118 15012KT P6SM SCT030 BKN150
     FM312000 15013KT P6SM VCSH FEW030 BKN050
     FM010300 15015KT P6SM SCT060
     FM010900 13005KT P6SM SCT020=



000
FTUS44 KCRP 311700
TAFALI
TAF
KALI 311722Z 3118/0118 15012G18KT P6SM VCSH SCT035
     FM010300 13008KT P6SM SCT020 BKN150
     FM010700 13004KT P6SM BKN020 BKN150
      TEMPO 0110/0113 3SM BR BKN010
     FM011500 14008KT P6SM FEW030=



000
FTUS44 KCRP 311700
TAFCRP
TAF
KCRP 311722Z 3118/0118 15013KT P6SM VCTS SCT025CB BKN120
     FM312100 15013KT P6SM SCT030 BKN120
     FM010300 13006KT P6SM SCT020 SCT150
      TEMPO 0110/0113 5SM BR BKN020
     FM011500 14009KT P6SM FEW025=



000
FTUS44 KCRP 311700
TAFVCT
TAF
KVCT 311722Z 3118/0118 15012KT P6SM VCTS SCT035CB BKN150
     FM010000 13012KT P6SM FEW035 BKN150
     FM010800 13005KT P6SM SCT020 BKN150
      TEMPO 0110/0113 5SM BR BKN020
     FM011500 14008KT P6SM FEW025=



000
FTUS44 KCRP 311400 AAB
TAFVCT
TAF AMD
KVCT 311415Z 3114/0112 VRB05KT P6SM VCTS SCT015CB BKN050
      TEMPO 3114/3115 VRB15G20KT 2SM TSRA BR SCT006 BKN030CB
     FM311600 15012KT P6SM VCTS SCT040CB BKN150
     FM010000 13012KT P6SM FEW035 BKN150
     FM010800 VRB05KT P6SM SCT020 BKN150=



000
FTUS44 KCRP 311300 AAA
TAFVCT
TAF AMD
KVCT 311345Z 3114/0112 VRB05KT P6SM VCTS SCT015CB BKN050
      TEMPO 3114/3115 2SM BR BKN008 BKN015
     FM311600 15012KT P6SM VCTS SCT040CB BKN150
     FM010000 13012KT P6SM FEW035 BKN150
     FM010800 VRB05KT P6SM SCT020 BKN150=



000
FTUS44 KCRP 311200 AAA
TAFALI
TAF AMD
KALI 311253Z 3113/0112 VRB05KT P6SM SCT025 BKN060
      TEMPO 3113/3115 4SM BR BKN015
     FM311600 15011KT P6SM VCSH SCT035 BKN060
     FM010300 13008KT P6SM SCT020 BKN150
     FM010700 VRB04KT P6SM BKN020 BKN150=



000
FTUS44 KCRP 311100
TAFVCT
TAF
KVCT 311127Z 3112/0112 VRB04KT P6SM VCSH FEW018 BKN120
     FM311400 VRB05KT P6SM VCTS SCT015CB BKN050
     FM311600 15012KT P6SM VCTS SCT040CB BKN150
     FM010000 13012KT P6SM FEW035 BKN150
     FM010800 VRB05KT P6SM SCT020 BKN150=



000
FTUS44 KCRP 311100
TAFCRP
TAF
KCRP 311127Z 3112/0112 13006KT P6SM VCSH SCT020 BKN150
      TEMPO 3113/3117 VRB15G25KT 5SM TSRA BKN020CB
     FM311700 15013KT P6SM SCT030 BKN120
     FM010300 13006KT P6SM SCT020 SCT150=



000
FTUS44 KCRP 311100
TAFLRD
TAF
KLRD 311127Z 3112/0112 13008KT P6SM SCT020 BKN150
     FM311500 14010KT P6SM SCT030 BKN150
     FM312000 14013KT P6SM VCSH FEW030 BKN050
     FM010300 13015KT P6SM SCT060
     FM010900 12005KT P6SM SCT020=



000
FTUS44 KCRP 311100
TAFALI
TAF
KALI 311127Z 3112/0112 VRB05KT P6SM SCT025 BKN060
      TEMPO 3112/3115 BKN020
     FM311600 15011KT P6SM VCSH SCT035 BKN060
     FM010300 13008KT P6SM SCT020 BKN150
     FM010700 VRB04KT P6SM BKN020 BKN150=



000
FTUS44 KCRP 310500
TAFCRP
TAF
KCRP 310536Z 3106/0106 VRB05KT P6SM SCT025 BKN070
     FM311100 13006KT P6SM VCSH SCT025 BKN150
      TEMPO 3112/3115 VRB15G25KT 5SM TSRA BKN025CB
     FM311700 15013KT P6SM SCT030 BKN120
     FM010300 13006KT P6SM FEW020 SCT150=



000
FTUS44 KCRP 310500
TAFVCT
TAF
KVCT 310536Z 3106/0106 VRB04KT P6SM SCT018 BKN120
     FM311400 VRB05KT P6SM VCTS SCT015CB BKN050
     FM311600 15012KT P6SM VCTS SCT040CB BKN150 PROB30 3116/3120 5SM
      TSRA BR BKN025CB
     FM010000 13012KT P6SM FEW035 BKN150=



000
FTUS44 KCRP 310500
TAFALI
TAF
KALI 310536Z 3106/0106 VRB04KT P6SM FEW025 BKN150
     FM310800 VRB05KT P6SM SCT025 BKN060
      TEMPO 3110/3114 BKN020
     FM311600 15011KT P6SM VCSH SCT035 BKN060 PROB30 3118/3122 5SM
      TSRA BR BKN025CB
     FM010300 13008KT P6SM SCT020 BKN150=



000
FTUS44 KCRP 310500
TAFLRD
TAF
KLRD 310536Z 3106/0106 13008KT P6SM SCT020 BKN150
      TEMPO 3106/3109 BKN020
     FM311300 14010KT P6SM SCT030 BKN150
     FM312000 14013KT P6SM VCSH BKN050
     FM010300 13015KT P6SM SCT060=



    US Dept of Commerce
    National Oceanic and Atmospheric Administration
    National Weather Service
    1325 East West Highway
    Silver Spring, MD 20910
    Page Author: NWS Internet Services Team
Disclaimer
Information Quality
Credits
Glossary
Privacy Policy
Freedom of Information Act (FOIA)
About Us
Career Opportunities